Terminal Aerodrome Forecast
Issued by NWS

Home | Current Version | Previous Version | Graphics & Text | Print | Product List | Glossary On
Versions: 1 2 3 4 5 6 7 8 9 10 11 12 13 14 15 16 17 18 19 20 21 22 23 24
000
FTUS43 KBIS 281100 RRA
TAFDIK
TAF
KDIK 281145Z 2812/2912 30017G23KT P6SM BKN009 OVC025
     FM281800 30016KT P6SM BKN020 OVC035
     FM282100 31013KT P6SM SCT025 BKN035
     FM290300 27005KT P6SM SCT035
     FM290600 15007KT P6SM SCT100=

USA.gov is the U.S. government's official web portal to all federal, state and local government web resources and services.